Time;durP1;ratioP1;P1;durP2;ratioP2;P2;SDS_P1;SDS_P2;PMS_P1;PMS_P2;Temp;Humidity;BMP_temperature;BMP_pressure;BME280_temperature;BME280_humidity;BME280_pressure;Samples;Min_cycle;Max_cycle;Signal;HPM_P1;HPM_P2
2023/12/29 00:01:40;;;;;;;9.45;1.75;;;;;;;12.05;100.00;100964.53;5271150;28;20027;-75
2023/12/29 00:04:11;;;;;;;10.48;2.03;;;;;;;12.04;100.00;100961.97;5272460;28;20020;-75
2023/12/29 00:06:41;;;;;;;19.48;2.20;;;;;;;12.09;100.00;100956.94;5269124;28;20097;-75
2023/12/29 00:09:12;;;;;;;12.48;1.73;;;;;;;12.00;100.00;100956.13;5273214;28;20070;-75
2023/12/29 00:11:43;;;;;;;14.68;2.20;;;;;;;11.89;100.00;100940.34;5271530;28;20023;-75
2023/12/29 00:14:13;;;;;;;12.05;1.92;;;;;;;12.07;100.00;100935.59;5274267;28;20747;-75
2023/12/29 00:16:44;;;;;;;10.77;2.35;;;;;;;11.95;100.00;100931.63;5271889;28;20050;-75
2023/12/29 00:19:15;;;;;;;11.00;2.35;;;;;;;11.97;100.00;100942.19;5271630;28;20034;-76
2023/12/29 00:21:45;;;;;;;13.40;2.30;;;;;;;11.95;100.00;100937.00;5270546;28;20035;-75
2023/12/29 00:24:16;;;;;;;19.35;2.40;;;;;;;11.96;100.00;100935.16;5275106;28;20023;-76
2023/12/29 00:26:47;;;;;;;10.63;2.30;;;;;;;11.97;100.00;100931.44;5268873;28;20023;-75
2023/12/29 00:29:18;;;;;;;19.60;3.05;;;;;;;11.89;100.00;100929.59;5275588;27;20035;-75
2023/12/29 00:31:48;;;;;;;19.40;2.20;;;;;;;11.85;100.00;100902.25;5268103;28;20103;-75
2023/12/29 00:34:18;;;;;;;12.50;2.13;;;;;;;11.89;100.00;100905.41;5273332;28;20020;-76
2023/12/29 00:36:49;;;;;;;11.50;1.83;;;;;;;11.92;100.00;100910.44;5270480;28;20024;-75
2023/12/29 00:39:28;;;;;;;12.52;2.42;;;;;;;11.92;100.00;100918.50;5270216;28;20036;-75
2023/12/29 00:41:58;;;;;;;9.30;1.80;;;;;;;11.97;100.00;100907.25;5267091;28;20108;-76
2023/12/29 00:44:29;;;;;;;14.15;2.25;;;;;;;11.93;100.00;100904.06;5270565;28;21005;-75
2023/12/29 00:47:00;;;;;;;12.45;1.90;;;;;;;11.83;100.00;100906.94;5271179;28;20512;-75
2023/12/29 00:49:31;;;;;;;13.60;1.77;;;;;;;11.84;100.00;100915.84;5271308;28;20027;-75
2023/12/29 00:52:02;;;;;;;16.13;2.55;;;;;;;11.88;100.00;100912.63;5267289;28;20108;-75
2023/12/29 00:54:33;;;;;;;10.45;2.20;;;;;;;11.72;100.00;100926.09;5270961;28;20023;-75
2023/12/29 00:57:03;;;;;;;12.35;2.30;;;;;;;11.74;100.00;100907.09;5267069;28;20027;-75
2023/12/29 00:59:37;;;;;;;14.70;3.38;;;;;;;11.68;100.00;100917.53;5272440;28;20023;-75
2023/12/29 01:02:08;;;;;;;11.05;1.92;;;;;;;11.66;100.00;100914.19;5272708;28;20019;-75
2023/12/29 01:04:39;;;;;;;14.05;3.10;;;;;;;11.71;100.00;100896.72;5271289;28;20023;-75
2023/12/29 01:07:10;;;;;;;12.70;2.70;;;;;;;11.71;100.00;100880.59;5271397;28;20019;-75
2023/12/29 01:09:40;;;;;;;16.77;2.75;;;;;;;11.68;100.00;100892.50;5270884;27;20435;-75
2023/12/29 01:12:11;;;;;;;14.27;2.00;;;;;;;11.72;100.00;100890.31;5272131;28;20008;-75
2023/12/29 01:14:41;;;;;;;16.38;3.03;;;;;;;11.71;100.00;100886.78;5269803;28;20028;-75
2023/12/29 01:17:12;;;;;;;18.92;3.15;;;;;;;11.80;100.00;100888.44;5273181;28;20035;-76
2023/12/29 01:19:42;;;;;;;15.07;2.00;;;;;;;11.79;100.00;100892.13;5265664;28;20035;-75
2023/12/29 01:22:13;;;;;;;17.75;2.20;;;;;;;11.71;100.00;100877.91;5270441;28;20125;-75
2023/12/29 01:24:43;;;;;;;10.30;1.92;;;;;;;11.73;100.00;100878.56;5271309;28;20509;-76
2023/12/29 01:27:14;;;;;;;15.73;2.28;;;;;;;11.76;100.00;100900.56;5271308;28;20019;-75
2023/12/29 01:29:44;;;;;;;16.02;2.58;;;;;;;11.69;100.00;100894.19;5269529;28;20016;-75
2023/12/29 01:32:15;;;;;;;22.67;3.65;;;;;;;11.87;100.00;100892.16;5270369;28;20015;-75
2023/12/29 01:34:45;;;;;;;12.98;1.98;;;;;;;11.77;100.00;100887.94;5269199;27;20011;-75
2023/12/29 01:37:16;;;;;;;20.85;2.40;;;;;;;11.90;100.00;100897.19;5272534;28;20023;-75
2023/12/29 01:39:46;;;;;;;9.57;1.90;;;;;;;11.78;100.00;100884.25;5266698;28;20028;-75
2023/12/29 01:42:17;;;;;;;16.63;2.17;;;;;;;11.82;100.00;100881.06;5273008;28;20019;-75
2023/12/29 01:44:52;;;;;;;19.48;2.78;;;;;;;11.92;100.00;100870.94;5267795;28;20021;-75
2023/12/29 01:47:23;;;;;;;;;;;;;;;11.75;100.00;100877.38;5272183;28;20110;-75
2023/12/29 01:49:53;;;;;;;18.52;3.33;;;;;;;11.82;100.00;100881.06;5269800;28;19988;-75
2023/12/29 01:52:24;;;;;;;15.13;2.15;;;;;;;11.83;100.00;100889.97;5271162;28;20019;-75
2023/12/29 01:54:55;;;;;;;13.55;2.30;;;;;;;11.90;100.00;100881.06;5270736;28;20077;-75
2023/12/29 01:57:26;;;;;;;12.05;1.70;;;;;;;11.78;100.00;100876.19;5269179;28;20069;-75
2023/12/29 01:59:56;;;;;;;10.63;1.63;;;;;;;11.76;100.00;100884.44;5268850;28;20051;-75
2023/12/29 02:02:27;;;;;;;9.20;1.92;;;;;;;11.88;100.00;100874.16;5282404;28;20020;-75
2023/12/29 02:05:00;;;;;;;12.88;1.90;;;;;;;11.87;100.00;100886.78;5270660;28;20027;-75
2023/12/29 02:07:32;;;;;;;11.18;1.60;;;;;;;11.88;100.00;100887.59;5270962;28;20058;-75
2023/12/29 02:10:23;;;;;;;10.85;2.15;;;;;;;11.88;100.00;100903.72;5272394;28;20019;-75
2023/12/29 02:12:57;;;;;;;5.85;1.40;;;;;;;11.93;100.00;100891.44;5269413;28;20545;-75
2023/12/29 02:15:27;;;;;;;11.73;2.40;;;;;;;11.94;100.00;100881.53;5271254;28;20027;-75
2023/12/29 02:18:14;;;;;;;13.63;3.03;;;;;;;11.94;100.00;100868.09;5270154;28;20038;-75
2023/12/29 02:20:45;;;;;;;18.40;2.53;;;;;;;11.97;100.00;100861.53;5269489;28;20020;-75
2023/12/29 02:23:16;;;;;;;13.10;2.40;;;;;;;11.88;100.00;100874.16;5273475;28;20476;-75
2023/12/29 02:25:47;;;;;;;10.27;2.38;;;;;;;11.97;100.00;100870.44;5274974;28;20035;-75
2023/12/29 02:28:34;;;;;;;9.13;1.80;;;;;;;11.85;100.00;100844.97;5274761;28;20019;-75
2023/12/29 02:31:09;;;;;;;10.10;2.33;;;;;;;11.86;100.00;100860.06;5273693;28;20108;-75
2023/12/29 02:34:02;;;;;;;6.13;1.73;;;;;;;11.92;100.00;100859.38;5272140;28;20501;-75
2023/12/29 02:36:42;;;;;;;19.33;1.77;;;;;;;11.91;100.00;100860.38;5275333;27;20015;-75
2023/12/29 02:39:12;;;;;;;21.10;2.13;;;;;;;11.83;100.00;100847.81;5270803;28;20427;-76
2023/12/29 02:41:43;;;;;;;9.73;1.83;;;;;;;11.83;100.00;100865.78;5273805;28;20035;-75
2023/12/29 02:44:13;;;;;;;14.32;2.72;;;;;;;11.87;100.00;100864.44;5256188;28;20085;-73
2023/12/29 02:46:44;;;;;;;7.47;1.65;;;;;;;11.85;100.00;100894.19;5273854;28;20023;-73
2023/12/29 02:49:14;;;;;;;14.75;2.33;;;;;;;11.83;100.00;100865.78;5274651;28;20031;-73
2023/12/29 02:51:47;;;;;;;12.80;1.77;;;;;;;11.87;100.00;100891.31;5273846;28;20429;-74
2023/12/29 02:54:18;;;;;;;16.02;2.28;;;;;;;11.82;100.00;100886.44;5275112;28;20034;-73
2023/12/29 02:56:49;;;;;;;7.45;2.15;;;;;;;11.79;100.00;100881.38;5271795;28;20473;-76
2023/12/29 02:59:19;;;;;;;12.05;2.40;;;;;;;11.72;100.00;100895.69;5275473;28;20019;-76
2023/12/29 03:01:50;;;;;;;14.40;2.05;;;;;;;11.82;100.00;100904.44;5273183;28;20059;-76
2023/12/29 03:04:20;;;;;;;18.55;2.30;;;;;;;11.75;100.00;100885.44;5276342;28;20042;-76
2023/12/29 03:06:51;;;;;;;9.38;1.90;;;;;;;11.69;100.00;100891.50;5270721;28;20028;-76
2023/12/29 03:09:22;;;;;;;12.88;2.28;;;;;;;11.66;100.00;100892.69;5274135;28;20023;-74
2023/12/29 03:11:52;;;;;;;15.63;2.28;;;;;;;11.63;100.00;100873.38;5273272;28;20028;-73
2023/12/29 03:14:23;;;;;;;15.90;2.13;;;;;;;11.59;100.00;100877.41;5274698;28;20054;-74
2023/12/29 03:16:53;;;;;;;10.65;2.42;;;;;;;11.62;100.00;100882.44;5272554;28;20028;-74
2023/12/29 03:19:25;;;;;;;13.25;1.80;;;;;;;11.58;100.00;100868.50;5272909;28;20019;-73
2023/12/29 03:21:59;;;;;;;11.40;2.20;;;;;;;11.62;100.00;100863.66;5272252;28;20538;-73
2023/12/29 03:24:30;;;;;;;11.10;2.30;;;;;;;11.65;100.00;100877.59;5272247;28;20023;-73
2023/12/29 03:27:01;;;;;;;15.93;2.90;;;;;;;11.60;100.00;100858.44;5269694;28;20039;-73
2023/12/29 03:29:31;;;;;;;15.85;2.72;;;;;;;11.53;100.00;100845.88;5269648;28;20019;-73
2023/12/29 03:32:02;;;;;;;13.57;2.78;;;;;;;11.58;100.00;100849.72;5266511;28;20481;-73
2023/12/29 03:34:33;;;;;;;18.90;2.33;;;;;;;11.59;100.00;100859.44;5268779;28;20016;-73
2023/12/29 03:37:04;;;;;;;14.45;1.90;;;;;;;11.57;100.00;100853.41;5270342;28;20031;-73
2023/12/29 03:39:35;;;;;;;11.35;1.92;;;;;;;11.49;100.00;100840.00;5270631;28;20032;-73
2023/12/29 03:42:05;;;;;;;8.85;2.30;;;;;;;11.66;100.00;100830.03;5272129;28;20054;-73
2023/12/29 03:44:36;;;;;;;7.22;1.90;;;;;;;11.48;100.00;100858.97;5269288;28;20098;-73
2023/12/29 03:47:06;;;;;;;15.68;2.67;;;;;;;11.51;100.00;100831.78;5273297;28;20031;-73
2023/12/29 03:49:37;;;;;;;20.45;2.28;;;;;;;11.48;100.00;100824.88;5271315;28;20510;-73
2023/12/29 03:52:07;;;;;;;16.13;1.92;;;;;;;11.47;100.00;100847.41;5269145;28;20067;-73
2023/12/29 03:54:38;;;;;;;21.58;2.30;;;;;;;11.38;100.00;100835.00;5269384;28;20015;-73
2023/12/29 03:57:08;;;;;;;10.75;1.88;;;;;;;11.45;100.00;100827.94;5268412;28;20113;-73
2023/12/29 03:59:39;;;;;;;11.20;2.15;;;;;;;11.44;100.00;100833.47;5271190;28;20064;-73
2023/12/29 04:02:09;;;;;;;23.27;2.65;;;;;;;11.39;100.00;100833.97;5273824;28;20207;-73
2023/12/29 04:04:40;;;;;;;10.05;2.10;;;;;;;11.40;100.00;100841.88;5266886;28;20025;-73
2023/12/29 04:07:10;;;;;;;19.88;2.60;;;;;;;11.32;100.00;100841.06;5268323;28;20372;-73
2023/12/29 04:09:41;;;;;;;15.88;3.70;;;;;;;11.46;100.00;100837.66;5268394;28;20111;-73
2023/12/29 04:12:11;;;;;;;16.45;2.40;;;;;;;11.43;100.00;100846.06;5268311;28;20035;-73
2023/12/29 04:14:42;;;;;;;12.57;2.00;;;;;;;11.35;100.00;100846.94;5268874;28;20354;-73
2023/12/29 04:17:13;;;;;;;13.00;2.40;;;;;;;11.37;100.00;100855.63;5266786;28;20036;-73
2023/12/29 04:19:44;;;;;;;20.83;2.53;;;;;;;11.32;100.00;100843.75;5267988;28;20020;-74
2023/12/29 04:22:14;;;;;;;12.70;1.88;;;;;;;11.30;100.00;100848.47;5268561;28;20046;-74
2023/12/29 04:24:45;;;;;;;14.45;1.98;;;;;;;11.31;100.00;100847.44;5271898;28;20020;-74
2023/12/29 04:27:17;;;;;;;15.27;2.58;;;;;;;11.33;100.00;100853.47;5267989;28;20034;-74
2023/12/29 04:29:48;;;;;;;10.82;1.92;;;;;;;11.40;100.00;100851.78;5267288;28;20036;-74
2023/12/29 04:32:19;;;;;;;25.88;2.85;;;;;;;11.36;100.00;100853.97;5271482;28;20469;-74
2023/12/29 04:34:49;;;;;;;9.32;1.90;;;;;;;11.31;100.00;100847.44;5256805;28;20036;-74
2023/12/29 04:37:20;;;;;;;13.32;2.10;;;;;;;11.38;100.00;100848.41;5268365;28;20024;-74
2023/12/29 04:39:50;;;;;;;15.10;2.05;;;;;;;11.31;100.00;100860.88;5268151;28;20028;-74
2023/12/29 04:42:21;;;;;;;18.20;1.98;;;;;;;11.32;100.00;100852.63;5273963;28;20625;-74
2023/12/29 04:44:51;;;;;;;18.85;2.20;;;;;;;11.26;100.00;100864.06;5268615;28;20098;-74
2023/12/29 04:47:22;;;;;;;14.43;2.35;;;;;;;11.22;100.00;100848.47;5265372;28;20103;-74
2023/12/29 04:49:52;;;;;;;16.05;2.25;;;;;;;11.22;100.00;100851.16;5270761;28;20024;-74
2023/12/29 04:52:23;;;;;;;16.50;2.28;;;;;;;11.27;100.00;100851.47;5270672;28;20024;-74
2023/12/29 04:54:53;;;;;;;14.73;2.78;;;;;;;11.34;100.00;100865.88;5268791;28;20520;-74
2023/12/29 04:57:24;;;;;;;19.55;2.22;;;;;;;11.35;100.00;100863.03;5268816;28;20015;-74
2023/12/29 04:59:54;;;;;;;11.90;2.75;;;;;;;11.24;100.00;100858.00;5270463;28;20034;-74
2023/12/29 05:02:25;;;;;;;14.30;1.95;;;;;;;11.24;100.00;100858.00;5269223;28;20020;-74
2023/12/29 05:04:55;;;;;;;17.48;2.40;;;;;;;11.11;100.00;100863.91;5268363;28;20024;-74
2023/12/29 05:07:26;;;;;;;14.60;2.50;;;;;;;11.17;100.00;100872.28;5265716;28;20024;-74
2023/12/29 05:09:57;;;;;;;20.77;2.50;;;;;;;11.17;100.00;100862.38;5265353;28;20067;-74
2023/12/29 05:12:27;;;;;;;15.15;2.13;;;;;;;11.24;100.00;100849.94;5268330;28;20018;-74
2023/12/29 05:14:58;;;;;;;11.88;2.22;;;;;;;11.08;100.00;100866.09;5269926;28;20105;-74
2023/12/29 05:17:28;;;;;;;14.90;2.13;;;;;;;11.14;100.00;100858.22;5270056;28;20026;-74
2023/12/29 05:19:59;;;;;;;18.20;2.83;;;;;;;11.19;100.00;100854.16;5265055;28;20073;-74
2023/12/29 05:22:30;;;;;;;13.20;2.42;;;;;;;11.18;100.00;100849.81;5266096;28;20031;-74
2023/12/29 05:25:00;;;;;;;16.52;2.08;;;;;;;11.23;100.00;100852.81;5259234;28;20036;-74
2023/12/29 05:27:31;;;;;;;15.65;2.90;;;;;;;11.25;100.00;100851.66;5267268;28;20384;-74
2023/12/29 05:30:02;;;;;;;17.73;3.38;;;;;;;11.25;100.00;100842.75;5264793;28;20736;-74
2023/12/29 05:32:33;;;;;;;14.77;1.88;;;;;;;11.31;100.00;100842.06;5270599;28;20496;-74
2023/12/29 05:35:04;;;;;;;11.45;2.60;;;;;;;11.24;100.00;100841.91;5270803;28;20024;-74
2023/12/29 05:37:34;;;;;;;19.85;3.05;;;;;;;11.19;100.00;100846.94;5269847;28;20034;-74
2023/12/29 05:40:05;;;;;;;17.65;2.72;;;;;;;11.19;100.00;100836.19;5268484;28;20024;-75
2023/12/29 05:42:36;;;;;;;16.73;5.03;;;;;;;11.16;100.00;100841.94;5269342;27;20035;-74
2023/12/29 05:45:07;;;;;;;11.55;1.73;;;;;;;11.18;100.00;100833.69;5270331;28;20053;-74
2023/12/29 05:47:37;;;;;;;18.83;3.00;;;;;;;11.22;100.00;100843.09;5268710;28;20032;-74
2023/12/29 05:50:08;;;;;;;9.93;2.10;;;;;;;11.27;100.00;100840.72;5268537;28;20023;-74
2023/12/29 05:52:39;;;;;;;8.82;2.17;;;;;;;11.25;100.00;100850.81;5269741;28;20409;-74
2023/12/29 05:55:09;;;;;;;12.48;2.13;;;;;;;11.22;100.00;100843.09;5269784;28;20024;-74
2023/12/29 05:57:40;;;;;;;12.70;3.10;;;;;;;11.32;100.00;100833.00;5267763;28;20032;-74
2023/12/29 06:00:14;;;;;;;16.08;1.92;;;;;;;11.30;100.00;100845.78;5270581;28;20020;-74
2023/12/29 06:02:44;;;;;;;16.48;2.22;;;;;;;11.22;100.00;100851.16;5269257;28;20032;-74
2023/12/29 06:05:15;;;;;;;16.42;1.90;;;;;;;11.24;100.00;100841.06;5269753;28;20510;-74
2023/12/29 06:07:46;;;;;;;16.35;2.25;;;;;;;11.19;100.00;100859.53;5270237;28;20031;-74
2023/12/29 06:10:16;;;;;;;26.38;2.78;;;;;;;11.19;100.00;100846.94;5270795;28;20019;-74
2023/12/29 06:12:47;;;;;;;15.73;2.70;;;;;;;11.17;100.00;100859.72;5266398;28;20077;-75
2023/12/29 06:15:17;;;;;;;15.13;2.60;;;;;;;11.16;100.00;100844.59;5270302;28;20020;-75
2023/12/29 06:17:48;;;;;;;22.23;3.28;;;;;;;11.12;100.00;100841.41;5267750;28;20099;-75
2023/12/29 06:20:18;;;;;;;14.02;3.13;;;;;;;11.13;100.00;100864.56;5267021;28;20034;-75
2023/12/29 06:22:49;;;;;;;18.15;2.70;;;;;;;11.10;100.00;100854.19;5267101;28;20024;-75
2023/12/29 06:25:19;;;;;;;21.27;2.60;;;;;;;10.97;100.00;100848.47;5266509;28;20385;-75
2023/12/29 06:27:50;;;;;;;15.20;2.13;;;;;;;10.83;100.00;100838.41;5266724;28;20105;-78
2023/12/29 06:30:20;;;;;;;20.90;2.67;;;;;;;10.94;100.00;100847.97;5265973;28;20031;-78
2023/12/29 06:32:51;;;;;;;13.88;2.58;;;;;;;10.89;100.00;100846.66;5248954;28;20396;-78
2023/12/29 06:35:22;;;;;;;20.70;3.13;;;;;;;10.91;100.00;100851.84;5267732;28;20141;-78
2023/12/29 06:37:53;;;;;;;8.63;1.80;;;;;;;10.87;100.00;100843.28;5270112;28;20036;-78
2023/12/29 06:40:23;;;;;;;18.55;2.50;;;;;;;10.82;100.00;100847.47;5268052;28;20040;-78
2023/12/29 06:42:54;;;;;;;10.00;2.15;;;;;;;10.74;100.00;100844.78;5266552;28;20036;-78
2023/12/29 06:45:24;;;;;;;10.25;2.17;;;;;;;10.80;100.00;100846.81;5268205;28;20392;-78
2023/12/29 06:47:55;;;;;;;10.18;1.80;;;;;;;10.69;100.00;100845.28;5266263;28;20038;-79
2023/12/29 06:50:25;;;;;;;15.10;2.33;;;;;;;10.67;100.00;100839.25;5268051;28;20020;-78
2023/12/29 06:52:56;;;;;;;11.63;2.03;;;;;;;10.75;100.00;100841.94;5269384;28;20108;-78
2023/12/29 06:55:26;;;;;;;9.80;1.60;;;;;;;10.69;100.00;100831.88;5265597;28;20042;-78
2023/12/29 06:57:57;;;;;;;10.85;1.30;;;;;;;10.72;100.00;100849.50;5269119;28;20431;-79
2023/12/29 07:00:27;;;;;;;14.55;1.40;;;;;;;10.62;100.00;100845.13;5262095;28;20035;-78
2023/12/29 07:02:58;;;;;;;16.35;2.13;;;;;;;10.61;100.00;100838.09;5264747;28;20519;-78
2023/12/29 07:05:29;;;;;;;12.57;1.75;;;;;;;10.58;100.00;100814.25;5269779;28;20023;-78
2023/12/29 07:07:59;;;;;;;8.23;1.52;;;;;;;10.44;100.00;100812.25;5265975;28;20024;-78
2023/12/29 07:10:30;;;;;;;13.30;1.73;;;;;;;10.47;100.00;100808.41;5267744;28;20020;-77
2023/12/29 07:13:00;;;;;;;15.25;2.03;;;;;;;10.48;100.00;100818.94;5270353;28;20024;-77
2023/12/29 07:15:31;;;;;;;9.05;2.15;;;;;;;10.50;100.00;100826.84;5272580;28;20469;-77
2023/12/29 07:18:01;;;;;;;12.25;2.08;;;;;;;10.56;100.00;100816.28;5268544;28;20419;-77
2023/12/29 07:20:32;;;;;;;7.80;1.67;;;;;;;10.58;100.00;100825.00;5269852;28;20023;-78
2023/12/29 07:23:03;;;;;;;10.63;1.65;;;;;;;10.49;100.00;100803.69;5269243;28;20122;-77
2023/12/29 07:25:33;;;;;;;11.30;1.55;;;;;;;10.55;100.00;100806.56;5269831;28;20019;-78
2023/12/29 07:28:05;;;;;;;14.85;1.90;;;;;;;10.66;100.00;100817.97;5270337;28;20059;-78
2023/12/29 07:30:36;;;;;;;7.05;1.35;;;;;;;10.65;100.00;100818.97;5268972;28;20051;-78
2023/12/29 07:33:07;;;;;;;8.25;1.52;;;;;;;10.65;100.00;100821.66;5270685;28;20071;-79
2023/12/29 07:35:37;;;;;;;9.02;1.60;;;;;;;10.52;100.00;100809.56;5271417;28;20035;-78
2023/12/29 07:38:08;;;;;;;10.43;1.67;;;;;;;10.74;100.00;100828.69;5249410;28;20028;-78
2023/12/29 07:40:38;;;;;;;10.05;1.67;;;;;;;10.76;100.00;100818.63;5269506;28;20032;-78
2023/12/29 07:43:09;;;;;;;4.72;1.30;;;;;;;10.83;100.00;100839.25;5271461;28;20036;-78
2023/12/29 07:45:40;;;;;;;7.30;1.65;;;;;;;10.87;100.00;100840.59;5267544;28;20027;-78
2023/12/29 07:48:10;;;;;;;8.20;2.03;;;;;;;10.77;100.00;100834.56;5270464;28;20026;-78
2023/12/29 07:50:41;;;;;;;6.47;1.55;;;;;;;10.74;100.00;100834.06;5269507;28;20096;-78
2023/12/29 07:53:11;;;;;;;5.35;1.13;;;;;;;10.81;100.00;100840.44;5272246;28;20027;-78
2023/12/29 07:55:43;;;;;;;8.13;1.50;;;;;;;10.87;100.00;100845.13;5268147;28;20061;-78
2023/12/29 07:58:14;;;;;;;6.97;1.67;;;;;;;10.66;100.00;100829.53;5269628;28;20064;-79
2023/12/29 08:00:45;;;;;;;6.55;1.10;;;;;;;10.74;100.00;100832.19;5268613;28;20435;-79
2023/12/29 08:03:16;;;;;;;8.48;1.50;;;;;;;10.68;100.00;100848.16;5272183;28;20030;-78
2023/12/29 08:05:46;;;;;;;7.65;1.23;;;;;;;10.62;100.00;100830.88;5269486;28;20024;-79
2023/12/29 08:08:17;;;;;;;6.68;1.30;;;;;;;10.61;100.00;100832.72;5271618;28;20106;-78
2023/12/29 08:10:47;;;;;;;5.40;0.90;;;;;;;10.67;100.00;100831.22;5269077;28;20027;-78
2023/12/29 08:13:18;;;;;;;4.78;1.10;;;;;;;10.67;100.00;100820.47;5271622;28;20031;-78
2023/12/29 08:15:48;;;;;;;7.85;1.73;;;;;;;10.67;100.00;100833.06;5268549;28;20024;-78
2023/12/29 08:18:19;;;;;;;5.90;1.35;;;;;;;10.75;100.00;100831.22;5266947;28;20031;-78
2023/12/29 08:20:49;;;;;;;7.80;0.90;;;;;;;10.81;100.00;100832.38;5266743;28;20024;-78
2023/12/29 08:23:20;;;;;;;8.43;2.35;;;;;;;10.79;100.00;100840.63;5272456;28;20380;-78
2023/12/29 08:25:50;;;;;;;6.05;2.70;;;;;;;10.72;100.00;100846.81;5270624;28;20040;-78
2023/12/29 08:28:21;;;;;;;9.18;1.70;;;;;;;10.65;100.00;100861.91;5270399;28;20057;-78
2023/12/29 08:30:52;;;;;;;5.07;1.77;;;;;;;10.76;100.00;100861.56;5251920;28;20032;-79
2023/12/29 08:33:22;;;;;;;7.63;1.60;;;;;;;10.84;100.00;100857.06;5271956;28;20028;-78
2023/12/29 08:35:53;;;;;;;6.57;1.30;;;;;;;10.85;100.00;100857.88;5269971;28;20062;-78
2023/12/29 08:38:23;;;;;;;35.13;18.38;;;;;;;10.85;100.00;100860.56;5272222;28;20027;-78
2023/12/29 08:40:54;;;;;;;15.60;6.38;;;;;;;10.89;100.00;100868.13;5266656;28;20477;-78
2023/12/29 08:43:28;;;;;;;13.05;4.68;;;;;;;10.85;100.00;100887.41;5251653;28;20031;-78
2023/12/29 08:45:59;;;;;;;10.13;2.47;;;;;;;10.74;100.00;100898.44;5269853;28;20145;-79
2023/12/29 08:48:30;;;;;;;6.28;2.45;;;;;;;10.77;100.00;100892.75;5269457;28;20031;-79
2023/12/29 08:51:01;;;;;;;14.27;2.85;;;;;;;10.81;100.00;100900.31;5269706;28;20035;-79
2023/12/29 08:53:35;;;;;;;17.98;9.48;;;;;;;10.88;100.00;100919.25;5270086;28;20022;-79
2023/12/29 08:56:05;;;;;;;5.63;1.80;;;;;;;10.87;100.00;100921.13;5269093;28;20032;-79
2023/12/29 08:58:36;;;;;;;12.57;2.30;;;;;;;10.75;100.00;100909.03;5268216;28;20032;-79
2023/12/29 09:01:06;;;;;;;6.50;1.70;;;;;;;10.70;100.00;100894.44;5267730;28;20500;-79
2023/12/29 09:03:37;;;;;;;8.05;2.50;;;;;;;10.68;100.00;100899.13;5269585;28;20028;-79
2023/12/29 09:06:08;;;;;;;8.70;2.30;;;;;;;10.65;100.00;100886.88;5270191;28;20032;-79
2023/12/29 09:08:39;;;;;;;10.18;1.50;;;;;;;10.44;100.00;100871.28;5267657;27;20028;-79
2023/12/29 09:11:09;;;;;;;7.90;1.75;;;;;;;10.49;100.00;100873.44;5269457;28;20024;-79
2023/12/29 09:13:40;;;;;;;5.15;1.23;;;;;;;10.45;100.00;100875.63;5251434;28;20031;-78
2023/12/29 09:16:10;;;;;;;1.85;1.02;;;;;;;10.46;100.00;100882.66;5272103;28;20032;-78
2023/12/29 09:18:41;;;;;;;3.30;0.80;;;;;;;10.48;100.00;100887.84;5266444;27;20050;-78
2023/12/29 09:21:12;;;;;;;7.93;1.10;;;;;;;10.58;100.00;100889.38;5270275;28;20024;-78
2023/12/29 09:23:42;;;;;;;8.90;1.65;;;;;;;10.71;100.00;100886.22;5269589;28;20048;-78
2023/12/29 09:26:13;;;;;;;10.60;1.73;;;;;;;10.84;100.00;100885.72;5268722;28;20032;-77
2023/12/29 09:28:44;;;;;;;3.08;1.25;;;;;;;10.88;100.00;100897.78;5268566;28;20069;-78
2023/12/29 09:31:14;;;;;;;12.35;3.53;;;;;;;10.88;100.00;100890.56;5271146;28;20500;-78
2023/12/29 09:33:45;;;;;;;8.93;1.88;;;;;;;10.99;100.00;100884.03;5269035;28;20115;-78
2023/12/29 09:36:15;;;;;;;10.43;1.80;;;;;;;11.06;100.00;100879.69;5268783;28;20049;-76
2023/12/29 09:38:46;;;;;;;9.70;1.65;;;;;;;11.06;100.00;100874.31;5267725;28;20016;-76
2023/12/29 09:41:19;;;;;;;14.20;1.85;;;;;;;11.24;100.00;100892.91;5266428;28;20435;-77
2023/12/29 09:43:51;;;;;;;16.83;2.53;;;;;;;11.40;100.00;100890.22;5267952;28;20077;-76
2023/12/29 09:46:23;;;;;;;10.52;1.90;;;;;;;11.33;100.00;100889.22;5270776;28;20034;-76
2023/12/29 09:49:01;;;;;;;11.60;2.00;;;;;;;11.42;100.00;100876.63;5265294;28;20031;-77
2023/12/29 09:51:32;;;;;;;12.95;2.38;;;;;;;11.41;100.00;100901.81;5265220;28;20438;-76
2023/12/29 09:54:07;;;;;;;6.22;1.80;;;;;;;11.53;100.00;100896.91;5269544;28;20054;-76
2023/12/29 09:56:38;;;;;;;10.40;2.58;;;;;;;11.45;100.00;100888.88;5264768;28;20028;-77
2023/12/29 09:59:11;;;;;;;10.52;2.00;;;;;;;11.53;100.00;100892.38;5268245;28;20038;-76
2023/12/29 10:01:45;;;;;;;5.05;1.70;;;;;;;11.60;100.00;100895.22;5267398;28;20031;-76
2023/12/29 10:04:15;;;;;;;7.20;2.55;;;;;;;11.68;100.00;100887.97;5268691;28;20404;-76
2023/12/29 10:06:49;;;;;;;20.00;10.43;;;;;;;11.72;100.00;100893.00;5265940;28;20016;-77
2023/12/29 10:09:20;;;;;;;13.13;2.80;;;;;;;11.70;100.00;100905.75;5269654;28;20123;-77
2023/12/29 10:11:52;;;;;;;39.13;19.65;;;;;;;11.67;100.00;100902.41;5247363;28;20098;-77
2023/12/29 10:14:26;;;;;;;50.83;30.83;;;;;;;11.52;100.00;100901.44;5266939;28;20103;-77
2023/12/29 10:17:06;;;;;;;4.15;1.63;;;;;;;11.43;100.00;100902.47;5268860;28;20435;-77
2023/12/29 10:19:40;;;;;;;6.18;1.20;;;;;;;11.41;100.00;100904.50;5247677;28;21797;-77
2023/12/29 10:22:25;;;;;;;4.37;0.73;;;;;;;11.32;100.00;100900.13;5268953;28;20032;-78
2023/12/29 10:24:56;;;;;;;5.63;1.00;;;;;;;11.26;100.00;100903.50;5264923;28;20397;-77
2023/12/29 10:27:27;;;;;;;4.68;0.98;;;;;;;11.20;100.00;100917.63;5267847;28;20016;-77
2023/12/29 10:29:57;;;;;;;2.25;0.70;;;;;;;11.11;100.00;100916.78;5267561;28;20032;-77
2023/12/29 10:32:29;;;;;;;3.70;0.60;;;;;;;11.04;100.00;100924.63;5267293;28;20032;-78
2023/12/29 10:35:10;;;;;;;2.63;0.85;;;;;;;11.14;100.00;100933.41;5267306;28;20666;-77
2023/12/29 10:37:41;;;;;;;5.18;0.85;;;;;;;11.12;100.00;100926.50;5267405;28;20020;-77
2023/12/29 10:40:18;;;;;;;7.13;1.80;;;;;;;11.17;100.00;100917.94;5266613;28;20028;-77
2023/12/29 10:42:53;;;;;;;4.68;1.60;;;;;;;11.18;100.00;100917.75;5267221;28;20020;-77
2023/12/29 10:45:24;;;;;;;;;;;;;;;11.24;100.00;100917.09;5274372;28;20388;-77
2023/12/29 10:47:55;;;;;;;9.05;2.00;;;;;;;11.29;100.00;100911.22;5271430;28;20582;-77
2023/12/29 10:50:27;;;;;;;11.00;3.00;;;;;;;11.28;100.00;100912.22;5273697;28;20031;-77
2023/12/29 10:53:12;;;;;;;6.80;1.80;;;;;;;11.20;100.00;100899.66;5270445;28;20027;-77
2023/12/29 10:55:43;;;;;;;174.07;65.05;;;;;;;11.39;100.00;100914.56;5275331;28;20127;-77
2023/12/29 10:58:18;;;;;;;155.63;54.05;;;;;;;11.45;100.00;100892.41;5278644;28;20028;-77
2023/12/29 11:00:49;;;;;;;16.50;5.72;;;;;;;11.45;100.00;100902.31;5274038;28;20027;-77
2023/12/29 11:03:20;;;;;;;15.43;4.47;;;;;;;11.54;100.00;100895.91;5283707;28;20374;-79
2023/12/29 11:06:00;;;;;;;40.97;12.68;;;;;;;11.63;100.00;100893.03;5274608;28;20566;-77
2023/12/29 11:08:35;;;;;;;10.90;2.70;;;;;;;11.71;100.00;100894.03;5274277;28;20039;-79
2023/12/29 11:11:07;;;;;;;8.38;3.72;;;;;;;11.77;100.00;100887.94;5284077;28;20488;-77
2023/12/29 11:13:40;;;;;;;13.35;5.05;;;;;;;11.87;100.00;100894.00;5279384;28;20035;-77
2023/12/29 11:16:10;;;;;;;8.45;1.98;;;;;;;11.83;100.00;100896.19;5278188;28;20024;-77
2023/12/29 11:18:43;;;;;;;10.35;2.55;;;;;;;11.91;100.00;100879.19;5276524;28;20369;-76
2023/12/29 11:21:14;;;;;;;12.43;2.65;;;;;;;11.97;100.00;100902.69;5278549;28;20049;-76
2023/12/29 11:23:45;;;;;;;12.55;2.50;;;;;;;11.91;100.00;100896.16;5280328;28;20036;-76
2023/12/29 11:26:16;;;;;;;11.05;2.13;;;;;;;12.01;100.00;100892.44;5271821;27;20035;-76
2023/12/29 11:28:48;;;;;;;20.15;3.28;;;;;;;12.05;100.00;100897.31;5275484;28;20035;-76
2023/12/29 11:31:19;;;;;;;15.90;2.30;;;;;;;12.02;100.00;100888.72;5283074;28;20032;-77